sensor_id;sensor_type;location;lat;lon;timestamp;pressure;altitude;pressure_sealevel;temperature;humidity
79678;BME280;69145;45.544;10.214;2023-04-15T00:01:18;98865.06;;;15.72;51.07
79678;BME280;69145;45.544;10.214;2023-04-15T00:03:44;98862.72;;;15.71;52.02
79678;BME280;69145;45.544;10.214;2023-04-15T00:06:10;98864.81;;;15.74;51.26
79678;BME280;69145;45.544;10.214;2023-04-15T00:08:35;98866.66;;;15.73;51.14
79678;BME280;69145;45.544;10.214;2023-04-15T00:11:01;98861.91;;;15.70;51.26
79678;BME280;69145;45.544;10.214;2023-04-15T00:13:29;98852.75;;;15.68;50.65
79678;BME280;69145;45.544;10.214;2023-04-15T00:15:55;98861.44;;;15.73;50.94
79678;BME280;69145;45.544;10.214;2023-04-15T00:18:20;98855.13;;;15.69;50.42
79678;BME280;69145;45.544;10.214;2023-04-15T00:20:46;98853.28;;;15.70;50.85
79678;BME280;69145;45.544;10.214;2023-04-15T00:23:11;98845.47;;;15.70;51.11
79678;BME280;69145;45.544;10.214;2023-04-15T00:25:37;98850.47;;;15.71;50.27
79678;BME280;69145;45.544;10.214;2023-04-15T00:28:03;98835.78;;;15.65;50.33
79678;BME280;69145;45.544;10.214;2023-04-15T00:30:28;98846.50;;;15.69;49.86
79678;BME280;69145;45.544;10.214;2023-04-15T00:32:54;98843.91;;;15.69;50.25
79678;BME280;69145;45.544;10.214;2023-04-15T00:35:19;98840.97;;;15.65;49.95
79678;BME280;69145;45.544;10.214;2023-04-15T00:37:44;98843.34;;;15.67;50.33
79678;BME280;69145;45.544;10.214;2023-04-15T00:40:16;98830.25;;;15.62;50.12
79678;BME280;69145;45.544;10.214;2023-04-15T00:42:42;98834.19;;;15.64;49.79
79678;BME280;69145;45.544;10.214;2023-04-15T00:45:09;98838.13;;;15.67;49.94
79678;BME280;69145;45.544;10.214;2023-04-15T00:47:35;98833.47;;;15.69;50.09
79678;BME280;69145;45.544;10.214;2023-04-15T00:50:01;98829.75;;;15.65;50.04
79678;BME280;69145;45.544;10.214;2023-04-15T00:52:27;98820.84;;;15.61;49.33
79678;BME280;69145;45.544;10.214;2023-04-15T00:54:52;98829.75;;;15.65;49.90
79678;BME280;69145;45.544;10.214;2023-04-15T00:57:18;98832.13;;;15.66;50.07
79678;BME280;69145;45.544;10.214;2023-04-15T00:59:43;98821.63;;;15.61;50.69
79678;BME280;69145;45.544;10.214;2023-04-15T01:02:08;98831.09;;;15.67;49.85
79678;BME280;69145;45.544;10.214;2023-04-15T01:04:35;98825.66;;;15.69;49.64
79678;BME280;69145;45.544;10.214;2023-04-15T01:07:00;98834.19;;;15.64;49.59
79678;BME280;69145;45.544;10.214;2023-04-15T01:09:26;98837.56;;;15.65;49.53
79678;BME280;69145;45.544;10.214;2023-04-15T01:11:52;98834.66;;;15.61;49.75
79678;BME280;69145;45.544;10.214;2023-04-15T01:14:18;98825.53;;;15.59;49.87
79678;BME280;69145;45.544;10.214;2023-04-15T01:16:44;98829.69;;;15.60;49.92
79678;BME280;69145;45.544;10.214;2023-04-15T01:19:10;98836.97;;;15.58;49.60
79678;BME280;69145;45.544;10.214;2023-04-15T01:21:36;98821.75;;;15.50;49.53
79678;BME280;69145;45.544;10.214;2023-04-15T01:24:09;98830.72;;;15.59;49.30
79678;BME280;69145;45.544;10.214;2023-04-15T01:26:39;98828.38;;;15.57;49.32
79678;BME280;69145;45.544;10.214;2023-04-15T01:29:05;98818.09;;;15.51;48.83
79678;BME280;69145;45.544;10.214;2023-04-15T01:31:31;98819.19;;;15.55;49.40
79678;BME280;69145;45.544;10.214;2023-04-15T01:33:57;98829.44;;;15.61;49.40
79678;BME280;69145;45.544;10.214;2023-04-15T01:36:22;98826.84;;;15.61;49.61
79678;BME280;69145;45.544;10.214;2023-04-15T01:38:48;98820.84;;;15.61;48.96
79678;BME280;69145;45.544;10.214;2023-04-15T01:41:13;98828.44;;;15.62;49.80
79678;BME280;69145;45.544;10.214;2023-04-15T01:43:39;98824.47;;;15.60;49.32
79678;BME280;69145;45.544;10.214;2023-04-15T01:46:04;98817.38;;;15.55;49.23
79678;BME280;69145;45.544;10.214;2023-04-15T01:48:30;98824.41;;;15.55;49.36
79678;BME280;69145;45.544;10.214;2023-04-15T01:50:58;98834.34;;;15.58;49.10
79678;BME280;69145;45.544;10.214;2023-04-15T01:53:24;98837.28;;;15.61;48.74
79678;BME280;69145;45.544;10.214;2023-04-15T01:55:50;98840.47;;;15.47;48.09
79678;BME280;69145;45.544;10.214;2023-04-15T01:58:16;98840.28;;;15.53;49.25
79678;BME280;69145;45.544;10.214;2023-04-15T02:00:41;98840.28;;;15.53;48.66
79678;BME280;69145;45.544;10.214;2023-04-15T02:03:07;98835.00;;;15.48;48.61
79678;BME280;69145;45.544;10.214;2023-04-15T02:05:32;98841.63;;;15.56;48.93
79678;BME280;69145;45.544;10.214;2023-04-15T02:07:58;98839.88;;;15.61;48.99
79678;BME280;69145;45.544;10.214;2023-04-15T02:10:23;98835.16;;;15.58;49.26
79678;BME280;69145;45.544;10.214;2023-04-15T02:12:49;98841.72;;;15.61;49.34
79678;BME280;69145;45.544;10.214;2023-04-15T02:15:14;98844.31;;;15.61;48.72
79678;BME280;69145;45.544;10.214;2023-04-15T02:17:39;98844.84;;;15.63;48.61
79678;BME280;69145;45.544;10.214;2023-04-15T02:20:06;98847.16;;;15.59;48.58
79678;BME280;69145;45.544;10.214;2023-04-15T02:22:32;98837.19;;;15.56;48.68
79678;BME280;69145;45.544;10.214;2023-04-15T02:24:58;98839.56;;;15.58;48.58
79678;BME280;69145;45.544;10.214;2023-04-15T02:27:23;98831.53;;;15.43;47.89
79678;BME280;69145;45.544;10.214;2023-04-15T02:29:48;98837.31;;;15.45;47.81
79678;BME280;69145;45.544;10.214;2023-04-15T02:32:17;98837.94;;;15.52;48.56
79678;BME280;69145;45.544;10.214;2023-04-15T02:34:43;98836.66;;;15.54;48.40
79678;BME280;69145;45.544;10.214;2023-04-15T02:37:10;98838.69;;;15.52;47.71
79678;BME280;69145;45.544;10.214;2023-04-15T02:39:36;98838.50;;;15.54;48.25
79678;BME280;69145;45.544;10.214;2023-04-15T02:42:01;98831.38;;;15.49;47.95
79678;BME280;69145;45.544;10.214;2023-04-15T02:44:27;98835.31;;;15.52;48.20
79678;BME280;69145;45.544;10.214;2023-04-15T02:46:53;98842.09;;;15.53;48.25
79678;BME280;69145;45.544;10.214;2023-04-15T02:49:22;98847.38;;;15.58;48.16
79678;BME280;69145;45.544;10.214;2023-04-15T02:51:47;98849.69;;;15.54;47.98
79678;BME280;69145;45.544;10.214;2023-04-15T02:54:16;98847.00;;;15.49;47.50
79678;BME280;69145;45.544;10.214;2023-04-15T02:56:41;98843.53;;;15.44;47.69
79678;BME280;69145;45.544;10.214;2023-04-15T02:59:06;98845.19;;;15.50;47.83
79678;BME280;69145;45.544;10.214;2023-04-15T03:01:32;98845.44;;;15.48;48.22
79678;BME280;69145;45.544;10.214;2023-04-15T03:03:57;98854.13;;;15.54;48.19
79678;BME280;69145;45.544;10.214;2023-04-15T03:06:23;98844.47;;;15.54;48.34
79678;BME280;69145;45.544;10.214;2023-04-15T03:08:49;98852.03;;;15.56;47.89
79678;BME280;69145;45.544;10.214;2023-04-15T03:11:14;98851.03;;;15.57;48.80
79678;BME280;69145;45.544;10.214;2023-04-15T03:13:41;98857.34;;;15.61;48.60
79678;BME280;69145;45.544;10.214;2023-04-15T03:16:07;98860.19;;;15.59;48.56
79678;BME280;69145;45.544;10.214;2023-04-15T03:18:33;98860.72;;;15.61;48.26
79678;BME280;69145;45.544;10.214;2023-04-15T03:20:58;98864.38;;;15.60;48.20
79678;BME280;69145;45.544;10.214;2023-04-15T03:23:24;98861.47;;;15.57;48.14
79678;BME280;69145;45.544;10.214;2023-04-15T03:25:49;98866.69;;;15.57;48.41
79678;BME280;69145;45.544;10.214;2023-04-15T03:28:15;98875.81;;;15.59;48.08
79678;BME280;69145;45.544;10.214;2023-04-15T03:30:40;98862.72;;;15.54;48.43
79678;BME280;69145;45.544;10.214;2023-04-15T03:33:06;98864.56;;;15.54;48.09
79678;BME280;69145;45.544;10.214;2023-04-15T03:35:32;98875.81;;;15.59;48.36
79678;BME280;69145;45.544;10.214;2023-04-15T03:37:58;98878.22;;;15.61;48.00
79678;BME280;69145;45.544;10.214;2023-04-15T03:40:23;98871.34;;;15.55;47.97
79678;BME280;69145;45.544;10.214;2023-04-15T03:42:48;98881.03;;;15.59;47.85
79678;BME280;69145;45.544;10.214;2023-04-15T03:45:14;98875.81;;;15.59;48.01
79678;BME280;69145;45.544;10.214;2023-04-15T03:47:39;98882.88;;;15.59;48.46
79678;BME280;69145;45.544;10.214;2023-04-15T03:50:05;98889.66;;;15.60;48.16
79678;BME280;69145;45.544;10.214;2023-04-15T03:52:31;98886.72;;;15.56;48.39
79678;BME280;69145;45.544;10.214;2023-04-15T03:54:56;98886.50;;;15.58;47.92
79678;BME280;69145;45.544;10.214;2023-04-15T03:57:22;98884.94;;;15.57;47.82
79678;BME280;69145;45.544;10.214;2023-04-15T03:59:47;98890.13;;;15.57;48.23
79678;BME280;69145;45.544;10.214;2023-04-15T04:02:12;98890.94;;;15.57;48.06
79678;BME280;69145;45.544;10.214;2023-04-15T04:04:37;98891.69;;;15.58;48.26
79678;BME280;69145;45.544;10.214;2023-04-15T04:07:03;98891.69;;;15.58;48.07
79678;BME280;69145;45.544;10.214;2023-04-15T04:09:28;98899.53;;;15.58;48.63
79678;BME280;69145;45.544;10.214;2023-04-15T04:11:53;98898.97;;;15.56;47.73
79678;BME280;69145;45.544;10.214;2023-04-15T04:14:20;98896.59;;;15.54;47.94
79678;BME280;69145;45.544;10.214;2023-04-15T04:16:45;98909.88;;;15.53;47.59
79678;BME280;69145;45.544;10.214;2023-04-15T04:19:11;98917.47;;;15.54;47.64
79678;BME280;69145;45.544;10.214;2023-04-15T04:21:36;98915.38;;;15.23;47.65
79678;BME280;69145;45.544;10.214;2023-04-15T04:24:03;98919.00;;;15.39;48.41
79678;BME280;69145;45.544;10.214;2023-04-15T04:26:29;98923.09;;;15.46;48.08
79678;BME280;69145;45.544;10.214;2023-04-15T04:28:54;98921.59;;;15.50;48.13
79678;BME280;69145;45.544;10.214;2023-04-15T04:31:19;98925.75;;;15.51;47.88
79678;BME280;69145;45.544;10.214;2023-04-15T04:33:45;98927.00;;;15.49;47.57
79678;BME280;69145;45.544;10.214;2023-04-15T04:36:10;98922.59;;;15.49;48.02
79678;BME280;69145;45.544;10.214;2023-04-15T04:38:36;98919.75;;;15.51;47.97
79678;BME280;69145;45.544;10.214;2023-04-15T04:41:01;98925.44;;;15.48;47.47
79678;BME280;69145;45.544;10.214;2023-04-15T04:43:26;98929.09;;;15.47;47.54
79678;BME280;69145;45.544;10.214;2023-04-15T04:45:52;98920.22;;;15.48;48.15
79678;BME280;69145;45.544;10.214;2023-04-15T04:48:17;98928.53;;;15.45;47.34
79678;BME280;69145;45.544;10.214;2023-04-15T04:50:43;98937.03;;;15.40;47.37
79678;BME280;69145;45.544;10.214;2023-04-15T04:53:09;98931.84;;;15.40;47.52
79678;BME280;69145;45.544;10.214;2023-04-15T04:55:34;98937.38;;;15.44;47.61
79678;BME280;69145;45.544;10.214;2023-04-15T04:58:03;98936.13;;;15.46;47.48
79678;BME280;69145;45.544;10.214;2023-04-15T05:00:28;98934.00;;;15.43;47.29
79678;BME280;69145;45.544;10.214;2023-04-15T05:02:57;98944.72;;;15.47;47.97
79678;BME280;69145;45.544;10.214;2023-04-15T05:05:23;98937.69;;;15.47;47.65
79678;BME280;69145;45.544;10.214;2023-04-15T05:07:48;98942.91;;;15.47;47.28
79678;BME280;69145;45.544;10.214;2023-04-15T05:10:14;98946.06;;;15.49;47.25
79678;BME280;69145;45.544;10.214;2023-04-15T05:12:41;98951.50;;;15.48;47.33
79678;BME280;69145;45.544;10.214;2023-04-15T05:15:07;98955.59;;;15.44;47.37
79678;BME280;69145;45.544;10.214;2023-04-15T05:17:33;98956.66;;;15.43;47.26
79678;BME280;69145;45.544;10.214;2023-04-15T05:19:59;98959.16;;;15.38;47.20
79678;BME280;69145;45.544;10.214;2023-04-15T05:22:25;98953.13;;;15.37;47.40
79678;BME280;69145;45.544;10.214;2023-04-15T05:24:50;98952.88;;;15.39;47.42
79678;BME280;69145;45.544;10.214;2023-04-15T05:27:15;98954.94;;;15.37;47.04
79678;BME280;69145;45.544;10.214;2023-04-15T05:29:41;98953.63;;;15.34;47.38
79678;BME280;69145;45.544;10.214;2023-04-15T05:32:06;98960.16;;;15.37;47.35
79678;BME280;69145;45.544;10.214;2023-04-15T05:34:32;98959.16;;;15.38;47.44
79678;BME280;69145;45.544;10.214;2023-04-15T05:36:57;98958.03;;;15.34;47.56
79678;BME280;69145;45.544;10.214;2023-04-15T05:39:22;98959.16;;;15.38;47.24
79678;BME280;69145;45.544;10.214;2023-04-15T05:41:48;98957.47;;;15.32;47.85
79678;BME280;69145;45.544;10.214;2023-04-15T05:44:13;98953.06;;;15.32;47.31
79678;BME280;69145;45.544;10.214;2023-04-15T05:46:38;98957.78;;;15.35;47.20
79678;BME280;69145;45.544;10.214;2023-04-15T05:49:04;98960.38;;;15.35;47.73
79678;BME280;69145;45.544;10.214;2023-04-15T05:51:29;98966.28;;;15.42;47.83
79678;BME280;69145;45.544;10.214;2023-04-15T05:53:55;98961.50;;;15.39;48.11
79678;BME280;69145;45.544;10.214;2023-04-15T05:56:20;98962.28;;;15.40;47.53
79678;BME280;69145;45.544;10.214;2023-04-15T05:58:46;98968.53;;;15.39;47.40
79678;BME280;69145;45.544;10.214;2023-04-15T06:01:11;98965.47;;;15.42;47.51
79678;BME280;69145;45.544;10.214;2023-04-15T06:03:37;98974.09;;;15.42;47.77
79678;BME280;69145;45.544;10.214;2023-04-15T06:06:03;98966.28;;;15.42;47.55
79678;BME280;69145;45.544;10.214;2023-04-15T06:08:28;98972.53;;;15.41;47.37
79678;BME280;69145;45.544;10.214;2023-04-15T06:10:53;98970.47;;;15.43;47.65
79678;BME280;69145;45.544;10.214;2023-04-15T06:13:19;98973.97;;;15.37;47.43
79678;BME280;69145;45.544;10.214;2023-04-15T06:15:44;98973.66;;;15.34;47.72
79678;BME280;69145;45.544;10.214;2023-04-15T06:18:10;98974.47;;;15.34;47.82
79678;BME280;69145;45.544;10.214;2023-04-15T06:20:35;98978.41;;;15.37;48.04
79678;BME280;69145;45.544;10.214;2023-04-15T06:23:01;98976.25;;;15.34;47.35
79678;BME280;69145;45.544;10.214;2023-04-15T06:25:27;98970.34;;;15.38;48.15
79678;BME280;69145;45.544;10.214;2023-04-15T06:27:52;98973.53;;;15.40;47.97
79678;BME280;69145;45.544;10.214;2023-04-15T06:30:17;98981.13;;;15.42;48.53
79678;BME280;69145;45.544;10.214;2023-04-15T06:32:43;98980.09;;;15.43;48.18
79678;BME280;69145;45.544;10.214;2023-04-15T06:35:08;98984.28;;;15.44;48.19
79678;BME280;69145;45.544;10.214;2023-04-15T06:37:34;98981.13;;;15.42;48.38
79678;BME280;69145;45.544;10.214;2023-04-15T06:39:59;98984.75;;;15.41;48.51
79678;BME280;69145;45.544;10.214;2023-04-15T06:42:24;98976.69;;;15.42;48.51
79678;BME280;69145;45.544;10.214;2023-04-15T06:44:50;98984.28;;;15.44;48.34
79678;BME280;69145;45.544;10.214;2023-04-15T06:47:15;98980.91;;;15.43;48.78
79678;BME280;69145;45.544;10.214;2023-04-15T06:49:41;98986.19;;;15.48;49.05
79678;BME280;69145;45.544;10.214;2023-04-15T06:52:07;98980.19;;;15.48;48.90
79678;BME280;69145;45.544;10.214;2023-04-15T06:54:33;98984.47;;;15.54;49.49
79678;BME280;69145;45.544;10.214;2023-04-15T06:56:58;98991.25;;;15.55;50.33
79678;BME280;69145;45.544;10.214;2023-04-15T06:59:23;98982.88;;;15.53;50.67
79678;BME280;69145;45.544;10.214;2023-04-15T07:01:49;98993.63;;;15.56;51.27
79678;BME280;69145;45.544;10.214;2023-04-15T07:04:14;98986.78;;;15.39;49.78
79678;BME280;69145;45.544;10.214;2023-04-15T07:06:40;98987.94;;;15.43;51.32
79678;BME280;69145;45.544;10.214;2023-04-15T07:09:06;98985.47;;;15.53;52.57
79678;BME280;69145;45.544;10.214;2023-04-15T07:11:31;98985.00;;;15.56;51.94
79678;BME280;69145;45.544;10.214;2023-04-15T07:13:57;98982.41;;;15.56;51.57
79678;BME280;69145;45.544;10.214;2023-04-15T07:16:22;98979.59;;;15.57;52.07
79678;BME280;69145;45.544;10.214;2023-04-15T07:18:48;98986.31;;;15.42;49.18
79678;BME280;69145;45.544;10.214;2023-04-15T07:21:13;98981.47;;;15.34;48.62
79678;BME280;69145;45.544;10.214;2023-04-15T07:23:38;98980.91;;;15.43;51.40
79678;BME280;69145;45.544;10.214;2023-04-15T07:26:04;98984.91;;;15.51;52.45
79678;BME280;69145;45.544;10.214;2023-04-15T07:28:29;98985.47;;;15.53;51.12
79678;BME280;69145;45.544;10.214;2023-04-15T07:30:55;98983.19;;;15.56;54.49
79678;BME280;69145;45.544;10.214;2023-04-15T07:33:24;98979.94;;;15.49;49.65
79678;BME280;69145;45.544;10.214;2023-04-15T07:35:49;98981.44;;;15.45;48.54
79678;BME280;69145;45.544;10.214;2023-04-15T07:38:14;98978.38;;;15.48;51.29
79678;BME280;69145;45.544;10.214;2023-04-15T07:40:40;98974.25;;;15.52;50.92
79678;BME280;69145;45.544;10.214;2023-04-15T07:43:07;98972.78;;;15.56;51.96
79678;BME280;69145;45.544;10.214;2023-04-15T07:45:33;98962.09;;;15.58;52.75
79678;BME280;69145;45.544;10.214;2023-04-15T07:48:00;98965.50;;;15.58;55.85
79678;BME280;69145;45.544;10.214;2023-04-15T07:50:26;98978.31;;;15.60;57.46
79678;BME280;69145;45.544;10.214;2023-04-15T07:52:51;98972.28;;;15.59;57.30
79678;BME280;69145;45.544;10.214;2023-04-15T07:55:17;98977.66;;;15.53;49.83
79678;BME280;69145;45.544;10.214;2023-04-15T07:57:45;98984.16;;;15.50;48.79
79678;BME280;69145;45.544;10.214;2023-04-15T08:00:12;98974.19;;;15.47;49.03
79678;BME280;69145;45.544;10.214;2023-04-15T08:02:38;98984.47;;;15.54;57.09
79678;BME280;69145;45.544;10.214;2023-04-15T08:05:03;98991.25;;;15.55;57.66
79678;BME280;69145;45.544;10.214;2023-04-15T08:07:29;98991.81;;;15.57;58.14
79678;BME280;69145;45.544;10.214;2023-04-15T08:09:55;98991.81;;;15.57;60.47
79678;BME280;69145;45.544;10.214;2023-04-15T08:12:20;98987.41;;;15.57;60.89
79678;BME280;69145;45.544;10.214;2023-04-15T08:14:46;98986.59;;;15.57;60.38
79678;BME280;69145;45.544;10.214;2023-04-15T08:17:12;98984.00;;;15.57;58.82
79678;BME280;69145;45.544;10.214;2023-04-15T08:19:37;98984.78;;;15.57;60.76
79678;BME280;69145;45.544;10.214;2023-04-15T08:22:02;98984.56;;;15.59;61.22
79678;BME280;69145;45.544;10.214;2023-04-15T08:24:29;98981.38;;;15.57;59.25
79678;BME280;69145;45.544;10.214;2023-04-15T08:26:55;98981.38;;;15.57;59.86
79678;BME280;69145;45.544;10.214;2023-04-15T08:29:21;98980.59;;;15.56;61.38
79678;BME280;69145;45.544;10.214;2023-04-15T08:31:47;98980.03;;;15.54;61.98
79678;BME280;69145;45.544;10.214;2023-04-15T08:34:13;98976.19;;;15.57;63.73
79678;BME280;69145;45.544;10.214;2023-04-15T08:36:39;98978.53;;;15.58;62.51
79678;BME280;69145;45.544;10.214;2023-04-15T08:39:04;98979.34;;;15.59;61.47
79678;BME280;69145;45.544;10.214;2023-04-15T08:44:09;98974.38;;;15.57;62.14
79678;BME280;69145;45.544;10.214;2023-04-15T08:46:35;98979.59;;;15.57;62.24
79678;BME280;69145;45.544;10.214;2023-04-15T08:49:03;98980.34;;;15.58;62.25
79678;BME280;69145;45.544;10.214;2023-04-15T08:51:29;98981.16;;;15.58;62.59
79678;BME280;69145;45.544;10.214;2023-04-15T08:53:56;98976.97;;;15.57;62.87
79678;BME280;69145;45.544;10.214;2023-04-15T08:56:25;98974.13;;;15.59;62.57
79678;BME280;69145;45.544;10.214;2023-04-15T08:58:53;98970.97;;;15.57;62.22
79678;BME280;69145;45.544;10.214;2023-04-15T09:01:19;98973.31;;;15.58;63.42
79678;BME280;69145;45.544;10.214;2023-04-15T09:03:47;98974.13;;;15.59;62.91
79678;BME280;69145;45.544;10.214;2023-04-15T09:06:17;98969.16;;;15.57;62.98
79678;BME280;69145;45.544;10.214;2023-04-15T09:08:43;98968.34;;;15.57;62.20
79678;BME280;69145;45.544;10.214;2023-04-15T09:11:09;98962.91;;;15.58;62.96
79678;BME280;69145;45.544;10.214;2023-04-15T09:13:34;98970.72;;;15.58;62.49
79678;BME280;69145;45.544;10.214;2023-04-15T09:16:04;98972.06;;;15.61;63.45
79678;BME280;69145;45.544;10.214;2023-04-15T09:18:31;98966.63;;;15.62;63.26
79678;BME280;69145;45.544;10.214;2023-04-15T09:21:08;98972.06;;;15.61;61.84
79678;BME280;69145;45.544;10.214;2023-04-15T09:23:36;98969.47;;;15.61;63.20
79678;BME280;69145;45.544;10.214;2023-04-15T09:26:02;98974.69;;;15.61;63.21
79678;BME280;69145;45.544;10.214;2023-04-15T09:28:28;98962.66;;;15.60;63.68
79678;BME280;69145;45.544;10.214;2023-04-15T09:30:57;98969.69;;;15.59;62.86
79678;BME280;69145;45.544;10.214;2023-04-15T09:33:23;98970.72;;;15.58;63.02
79678;BME280;69145;45.544;10.214;2023-04-15T09:36:01;98967.63;;;15.61;63.67
79678;BME280;69145;45.544;10.214;2023-04-15T09:38:27;98974.13;;;15.59;63.40
79678;BME280;69145;45.544;10.214;2023-04-15T09:40:53;98967.06;;;15.59;63.33
79678;BME280;69145;45.544;10.214;2023-04-15T09:43:18;98966.06;;;15.60;63.06
79678;BME280;69145;45.544;10.214;2023-04-15T09:45:52;98969.47;;;15.61;62.66
79678;BME280;69145;45.544;10.214;2023-04-15T09:48:22;98963.22;;;15.62;63.83
79678;BME280;69145;45.544;10.214;2023-04-15T09:50:51;98961.41;;;15.62;63.30
79678;BME280;69145;45.544;10.214;2023-04-15T09:53:19;98959.56;;;15.63;63.45
79678;BME280;69145;45.544;10.214;2023-04-15T09:55:52;98958.00;;;15.62;64.05
79678;BME280;69145;45.544;10.214;2023-04-15T09:58:29;98954.59;;;15.61;63.05
79678;BME280;69145;45.544;10.214;2023-04-15T10:00:56;98951.53;;;15.64;63.31
79678;BME280;69145;45.544;10.214;2023-04-15T10:03:25;98951.53;;;15.64;62.82
79678;BME280;69145;45.544;10.214;2023-04-15T10:05:53;98940.53;;;15.62;63.18
79678;BME280;69145;45.544;10.214;2023-04-15T10:08:22;98937.13;;;15.62;63.14
79678;BME280;69145;45.544;10.214;2023-04-15T10:10:48;98942.13;;;15.63;63.36
79678;BME280;69145;45.544;10.214;2023-04-15T10:13:16;98943.41;;;15.61;62.68
79678;BME280;69145;45.544;10.214;2023-04-15T10:15:44;98949.13;;;15.63;62.71
79678;BME280;69145;45.544;10.214;2023-04-15T10:18:14;98941.56;;;15.61;61.96
79678;BME280;69145;45.544;10.214;2023-04-15T10:20:42;98943.41;;;15.61;62.69
79678;BME280;69145;45.544;10.214;2023-04-15T10:23:08;98945.75;;;15.62;63.63
79678;BME280;69145;45.544;10.214;2023-04-15T10:25:33;98939.50;;;15.63;63.65
79678;BME280;69145;45.544;10.214;2023-04-15T10:27:59;98936.91;;;15.63;64.32
79678;BME280;69145;45.544;10.214;2023-04-15T10:30:24;98933.50;;;15.63;63.82
79678;BME280;69145;45.544;10.214;2023-04-15T10:32:50;98931.69;;;15.63;63.35
79678;BME280;69145;45.544;10.214;2023-04-15T10:35:17;98929.06;;;15.63;63.67
79678;BME280;69145;45.544;10.214;2023-04-15T10:37:43;98930.13;;;15.62;64.55
79678;BME280;69145;45.544;10.214;2023-04-15T10:42:57;98930.69;;;15.64;63.59
79678;BME280;69145;45.544;10.214;2023-04-15T10:45:44;98929.06;;;15.63;63.36
79678;BME280;69145;45.544;10.214;2023-04-15T10:48:15;98930.88;;;15.63;63.93
79678;BME280;69145;45.544;10.214;2023-04-15T10:50:55;98929.31;;;15.62;63.22
79678;BME280;69145;45.544;10.214;2023-04-15T10:53:30;98929.06;;;15.63;64.17
79678;BME280;69145;45.544;10.214;2023-04-15T10:55:58;98924.09;;;15.62;64.72
79678;BME280;69145;45.544;10.214;2023-04-15T10:58:24;98912.63;;;15.63;64.59
79678;BME280;69145;45.544;10.214;2023-04-15T11:00:51;98916.84;;;15.64;65.15
79678;BME280;69145;45.544;10.214;2023-04-15T11:03:35;98923.88;;;15.63;64.28
79678;BME280;69145;45.544;10.214;2023-04-15T11:06:01;98910.03;;;15.63;63.77
79678;BME280;69145;45.544;10.214;2023-04-15T11:11:18;98912.09;;;15.61;63.32
79678;BME280;69145;45.544;10.214;2023-04-15T11:13:48;98910.03;;;15.63;63.27
79678;BME280;69145;45.544;10.214;2023-04-15T11:16:14;98899.84;;;15.61;64.18
79678;BME280;69145;45.544;10.214;2023-04-15T11:18:40;98904.81;;;15.63;63.39
79678;BME280;69145;45.544;10.214;2023-04-15T11:21:06;98901.19;;;15.64;64.08
79678;BME280;69145;45.544;10.214;2023-04-15T11:23:40;98896.78;;;15.64;64.69
79678;BME280;69145;45.544;10.214;2023-04-15T11:26:09;98895.19;;;15.63;64.91
79678;BME280;69145;45.544;10.214;2023-04-15T11:28:37;98893.38;;;15.64;64.08
79678;BME280;69145;45.544;10.214;2023-04-15T11:31:09;98900.72;;;15.67;64.23
79678;BME280;69145;45.544;10.214;2023-04-15T11:33:36;98900.16;;;15.65;63.91
79678;BME280;69145;45.544;10.214;2023-04-15T11:36:01;98886.34;;;15.64;64.24
79678;BME280;69145;45.544;10.214;2023-04-15T11:38:28;98886.34;;;15.64;64.04
79678;BME280;69145;45.544;10.214;2023-04-15T11:40:53;98890.75;;;15.64;63.25
79678;BME280;69145;45.544;10.214;2023-04-15T11:43:21;98888.97;;;15.64;64.00
79678;BME280;69145;45.544;10.214;2023-04-15T11:46:00;98889.16;;;15.63;63.95
79678;BME280;69145;45.544;10.214;2023-04-15T11:48:27;98896.78;;;15.64;64.55
79678;BME280;69145;45.544;10.214;2023-04-15T11:51:04;98887.91;;;15.65;63.34
79678;BME280;69145;45.544;10.214;2023-04-15T11:53:46;98882.16;;;15.63;63.22
79678;BME280;69145;45.544;10.214;2023-04-15T11:56:19;98887.38;;;15.63;64.35
79678;BME280;69145;45.544;10.214;2023-04-15T11:58:45;98893.63;;;15.62;64.32
79678;BME280;69145;45.544;10.214;2023-04-15T12:01:11;98893.63;;;15.62;64.44
79678;BME280;69145;45.544;10.214;2023-04-15T12:03:42;98896.22;;;15.62;64.18
79678;BME280;69145;45.544;10.214;2023-04-15T12:08:51;98898.84;;;15.62;64.00
79678;BME280;69145;45.544;10.214;2023-04-15T12:16:21;98902.22;;;15.63;64.57
79678;BME280;69145;45.544;10.214;2023-04-15T12:18:54;98898.59;;;15.64;64.87
79678;BME280;69145;45.544;10.214;2023-04-15T12:21:24;98898.34;;;15.65;65.18
79678;BME280;69145;45.544;10.214;2023-04-15T12:23:53;98901.19;;;15.64;64.00
79678;BME280;69145;45.544;10.214;2023-04-15T12:26:28;98898.34;;;15.65;64.82
79678;BME280;69145;45.544;10.214;2023-04-15T12:29:04;98898.34;;;15.65;64.77
79678;BME280;69145;45.544;10.214;2023-04-15T12:31:31;98896.78;;;15.64;63.80
79678;BME280;69145;45.544;10.214;2023-04-15T12:33:57;98895.75;;;15.65;64.95
79678;BME280;69145;45.544;10.214;2023-04-15T12:36:23;98893.94;;;15.66;64.68
79678;BME280;69145;45.544;10.214;2023-04-15T12:38:49;98894.94;;;15.65;64.46
79678;BME280;69145;45.544;10.214;2023-04-15T12:41:14;98902.75;;;15.65;64.50
79678;BME280;69145;45.544;10.214;2023-04-15T12:43:40;98899.16;;;15.66;63.79
79678;BME280;69145;45.544;10.214;2023-04-15T12:46:06;98895.50;;;15.67;64.31
79678;BME280;69145;45.544;10.214;2023-04-15T12:48:33;98899.16;;;15.66;64.02
79678;BME280;69145;45.544;10.214;2023-04-15T12:50:58;98892.34;;;15.65;64.16
79678;BME280;69145;45.544;10.214;2023-04-15T12:53:24;98895.50;;;15.67;64.36
79678;BME280;69145;45.544;10.214;2023-04-15T12:55:50;98889.47;;;15.66;64.13
79678;BME280;69145;45.544;10.214;2023-04-15T12:58:16;98892.88;;;15.67;64.25
79678;BME280;69145;45.544;10.214;2023-04-15T13:00:41;98897.53;;;15.65;64.17
79678;BME280;69145;45.544;10.214;2023-04-15T13:03:07;98906.16;;;15.65;64.91